createdAt,value
2016-02-07T00:00:53.576Z,11.11
2016-02-07T00:01:53.549Z,11.05
2016-02-07T00:02:53.537Z,11.11
2016-02-07T00:03:53.492Z,11.04
2016-02-07T00:04:53.479Z,11.05
2016-02-07T00:05:53.466Z,11
2016-02-07T00:06:53.437Z,11
2016-02-07T00:07:53.409Z,11.02
2016-02-07T00:08:53.383Z,11.1
2016-02-07T00:09:53.369Z,11.12
2016-02-07T00:10:53.356Z,11.07
2016-02-07T00:11:53.312Z,11.1
2016-02-07T00:12:53.283Z,11
2016-02-07T00:13:53.272Z,10.99
2016-02-07T00:14:53.242Z,11.07
2016-02-07T00:15:53.214Z,11.04
2016-02-07T00:16:53.190Z,11.14
2016-02-07T00:17:53.176Z,11.1
2016-02-07T00:18:53.148Z,11.08
2016-02-07T00:19:53.135Z,11.05
2016-02-07T00:20:53.106Z,11.04
2016-02-07T00:21:53.080Z,11.15
2016-02-07T00:22:53.052Z,11.02
2016-02-07T00:23:53.038Z,11.04
2016-02-07T00:24:53.012Z,11.08
2016-02-07T00:25:52.984Z,11.05
2016-02-07T00:26:52.971Z,11.05
2016-02-07T00:27:52.942Z,11.12
2016-02-07T00:28:52.914Z,11.04
2016-02-07T00:29:52.886Z,11.05
2016-02-07T00:30:52.863Z,11.05
2016-02-07T00:31:52.849Z,11.05
2016-02-07T00:32:52.822Z,11.08
2016-02-07T00:33:52.809Z,11.1
2016-02-07T00:34:52.797Z,11.1
2016-02-07T00:35:52.753Z,11.05
2016-02-07T00:36:52.725Z,11.05
2016-02-07T00:37:52.712Z,11.19
2016-02-07T00:38:52.683Z,11.05
2016-02-07T00:39:52.656Z,11.17
2016-02-07T00:40:52.628Z,11.1
2016-02-07T00:41:52.615Z,11.1
2016-02-07T00:42:52.589Z,11.14
2016-02-07T00:43:52.575Z,11.14
2016-02-07T00:44:52.547Z,11.17
2016-02-07T00:45:52.516Z,11.04
2016-02-07T00:46:52.503Z,11.15
2016-02-07T00:47:52.474Z,11.05
2016-02-07T00:48:52.461Z,11.11
2016-02-07T00:49:52.417Z,11.02
2016-02-07T00:50:52.404Z,11.12
2016-02-07T00:51:52.390Z,11.08
2016-02-07T00:52:52.347Z,11.05
2016-02-07T00:53:52.323Z,11.05
2016-02-07T00:54:52.310Z,11.05
2016-02-07T00:55:52.281Z,11.12
2016-02-07T00:56:52.284Z,11.1
2016-02-07T00:57:52.225Z,11.1
2016-02-07T00:58:52.211Z,11.15
2016-02-07T00:59:52.183Z,11.15
2016-02-07T01:00:52.154Z,11.15
2016-02-07T01:01:52.142Z,11.18
2016-02-07T01:02:52.129Z,11.14
2016-02-07T01:03:52.085Z,11.15
2016-02-07T01:04:52.073Z,11.18
2016-02-07T01:05:52.060Z,11.27
2016-02-07T01:06:52.032Z,11.23
2016-02-07T01:07:52.003Z,11.18
2016-02-07T01:08:51.978Z,11.22
2016-02-07T01:09:51.949Z,11.17
2016-02-07T01:10:51.936Z,11.22
2016-02-07T01:11:51.908Z,11.19
2016-02-07T01:12:51.895Z,11.22
2016-02-07T01:13:51.867Z,11.25
2016-02-07T01:14:51.838Z,11.25
2016-02-07T01:15:51.810Z,11.15
2016-02-07T01:16:51.798Z,11.22
2016-02-07T01:17:51.770Z,11.23
2016-02-07T01:18:51.742Z,11.32
2016-02-07T01:19:51.728Z,11.25
2016-02-07T01:20:51.700Z,11.32
2016-02-07T01:21:51.688Z,11.25
2016-02-07T01:22:51.643Z,11.37
2016-02-07T01:23:51.630Z,11.3
2016-02-07T01:24:51.602Z,11.23
2016-02-07T01:25:51.590Z,11.3
2016-02-07T01:26:51.560Z,11.32
2016-02-07T01:27:51.532Z,11.36
2016-02-07T01:28:51.518Z,11.32
2016-02-07T01:29:51.492Z,11.35
2016-02-07T01:30:51.479Z,11.4
2016-02-07T01:31:51.450Z,11.35
2016-02-07T01:32:51.421Z,11.32
2016-02-07T01:33:51.408Z,11.32
2016-02-07T01:34:51.379Z,11.4
2016-02-07T01:35:51.352Z,11.32
2016-02-07T01:36:51.338Z,11.41
2016-02-07T01:37:51.314Z,11.37
2016-02-07T01:38:51.285Z,11.3
2016-02-07T01:39:51.257Z,11.36
2016-02-07T01:40:51.244Z,11.3
2016-02-07T01:41:51.231Z,11.36
2016-02-07T01:42:51.186Z,11.27
2016-02-07T01:43:51.174Z,11.33
2016-02-07T01:44:51.145Z,11.4
2016-02-07T01:45:51.132Z,11.35
2016-02-07T01:46:51.104Z,11.37
2016-02-07T01:47:51.074Z,11.33
2016-02-07T01:48:51.046Z,11.29
2016-02-07T01:49:51.018Z,11.32
2016-02-07T01:50:51.006Z,11.35
2016-02-07T01:51:50.993Z,11.35
2016-02-07T01:52:50.964Z,11.4
2016-02-07T01:53:50.936Z,11.29
2016-02-07T01:54:50.908Z,11.33
2016-02-07T01:55:50.881Z,11.32
2016-02-07T01:56:50.868Z,11.3
2016-02-07T01:57:50.839Z,11.32
2016-02-07T01:58:50.811Z,11.35
2016-02-07T01:59:50.799Z,11.33
2016-02-07T02:00:50.771Z,11.32
2016-02-07T02:01:50.757Z,11.3
2016-02-07T02:02:50.729Z,11.36
2016-02-07T02:03:50.693Z,11.35
2016-02-07T02:04:50.651Z,11.32
2016-02-07T02:05:50.624Z,11.29
2016-02-07T02:06:50.579Z,11.33
2016-02-07T02:07:50.552Z,11.33
2016-02-07T02:08:50.513Z,11.3
2016-02-07T02:09:50.496Z,11.37
2016-02-07T02:10:50.446Z,11.4
2016-02-07T02:11:50.427Z,11.35
2016-02-07T02:12:50.424Z,11.35
2016-02-07T02:13:50.376Z,11.37
2016-02-07T02:14:50.363Z,11.33
2016-02-07T02:15:50.316Z,11.35
2016-02-07T02:16:50.286Z,11.4
2016-02-07T02:17:50.271Z,11.37
2016-02-07T02:18:50.272Z,11.43
2016-02-07T02:19:50.227Z,11.4
2016-02-07T02:20:50.198Z,11.43
2016-02-07T02:21:50.171Z,11.3
2016-02-07T02:22:50.157Z,11.32
2016-02-07T02:23:50.129Z,11.36
2016-02-07T02:24:50.102Z,11.3
2016-02-07T02:25:50.073Z,11.44
2016-02-07T02:26:50.061Z,11.45
2016-02-07T02:27:50.037Z,11.33
2016-02-07T02:28:50.061Z,11.47
2016-02-07T02:29:50.049Z,11.23
2016-02-07T02:30:49.973Z,11.37
2016-02-07T02:31:49.929Z,11.37
2016-02-07T02:32:49.915Z,11.33
2016-02-07T02:33:49.888Z,11.32
2016-02-07T02:34:49.859Z,11.3
2016-02-07T02:35:49.846Z,11.33
2016-02-07T02:36:49.817Z,11.36
2016-02-07T02:37:49.789Z,11.36
2016-02-07T02:38:49.760Z,11.33
2016-02-07T02:39:49.748Z,11.19
2016-02-07T02:40:49.734Z,11.22
2016-02-07T02:41:49.706Z,11.26
2016-02-07T02:42:49.677Z,11.27
2016-02-07T02:43:49.654Z,11.25
2016-02-07T02:44:49.641Z,11.36
2016-02-07T02:45:49.613Z,11.15
2016-02-07T02:46:49.584Z,11.19
2016-02-07T02:47:49.572Z,11.22
2016-02-07T02:48:49.559Z,11.22
2016-02-07T02:49:49.515Z,11.19
2016-02-07T02:50:49.487Z,11.19
2016-02-07T02:51:49.474Z,11.15
2016-02-07T02:52:49.458Z,11.19
2016-02-07T02:53:49.429Z,11.25
2016-02-07T02:54:49.416Z,11.23
2016-02-07T02:55:49.388Z,11.27
2016-02-07T02:56:49.374Z,11.18
2016-02-07T02:57:49.329Z,11.36
2016-02-07T02:58:49.304Z,11.3
2016-02-07T02:59:49.306Z,11.25
2016-02-07T03:00:49.277Z,11.3
2016-02-07T03:01:49.248Z,11.25
2016-02-07T03:02:49.237Z,11.33
2016-02-07T03:03:49.192Z,11.3
2016-02-07T03:04:49.169Z,11.33
2016-02-07T03:05:49.156Z,11.37
2016-02-07T03:06:49.127Z,11.37
2016-02-07T03:07:49.098Z,11.32
2016-02-07T03:08:49.087Z,11.36
2016-02-07T03:09:49.073Z,11.36
2016-02-07T03:10:49.029Z,11.32
2016-02-07T03:11:49.003Z,11.33
2016-02-07T03:12:48.990Z,11.4
2016-02-07T03:13:48.962Z,11.36
2016-02-07T03:14:48.934Z,11.3
2016-02-07T03:15:48.920Z,11.33
2016-02-07T03:16:48.892Z,11.33
2016-02-07T03:17:48.878Z,11.41
2016-02-07T03:18:48.851Z,11.41
2016-02-07T03:19:48.823Z,11.36
2016-02-07T03:20:48.810Z,11.41
2016-02-07T03:21:48.784Z,11.36
2016-02-07T03:22:48.755Z,11.37
2016-02-07T03:23:48.727Z,11.4
2016-02-07T03:24:48.698Z,11.33
2016-02-07T03:25:48.701Z,11.32
2016-02-07T03:26:48.673Z,11.36
2016-02-07T03:27:48.628Z,11.37
2016-02-07T03:28:48.615Z,11.32
2016-02-07T03:29:48.603Z,11.33
2016-02-07T03:30:48.573Z,11.29
2016-02-07T03:31:48.561Z,11.43
2016-02-07T03:32:48.520Z,11.33
2016-02-07T03:33:48.507Z,11.35
2016-02-07T03:34:48.478Z,11.4
2016-02-07T03:35:48.465Z,11.33
2016-02-07T03:36:48.436Z,11.36
2016-02-07T03:37:48.409Z,11.3
2016-02-07T03:38:48.395Z,11.27
2016-02-07T03:39:48.382Z,11.26
2016-02-07T03:40:48.339Z,11.35
2016-02-07T03:41:48.310Z,11.32
2016-02-07T03:42:48.298Z,11.37
2016-02-07T03:43:48.285Z,11.32
2016-02-07T03:44:48.240Z,11.36
2016-02-07T03:45:48.213Z,11.43
2016-02-07T03:46:48.199Z,11.4
2016-02-07T03:47:48.188Z,11.33
2016-02-07T03:48:48.158Z,11.36
2016-02-07T03:49:48.132Z,11.4
2016-02-07T03:50:48.103Z,11.33
2016-02-07T03:51:48.090Z,11.37
2016-02-07T03:52:48.062Z,11.44
2016-02-07T03:53:48.033Z,11.32
2016-02-07T03:54:48.020Z,11.4
2016-02-07T03:55:47.992Z,11.48
2016-02-07T03:56:47.963Z,11.5
2016-02-07T03:57:47.950Z,11.48
2016-02-07T03:58:47.922Z,11.5
2016-02-07T03:59:47.909Z,11.51
2016-02-07T04:00:47.881Z,11.5
2016-02-07T04:01:47.856Z,11.5
2016-02-07T04:02:47.826Z,11.54
2016-02-07T04:03:47.828Z,11.51
2016-02-07T04:04:47.800Z,11.48
2016-02-07T04:05:47.771Z,11.55
2016-02-07T04:06:47.744Z,11.62
2016-02-07T04:07:47.731Z,11.48
2016-02-07T04:08:47.717Z,11.54
2016-02-07T04:09:47.688Z,11.59
2016-02-07T04:10:47.660Z,11.55
2016-02-07T04:11:47.632Z,11.5
2016-02-07T04:12:47.635Z,11.55
2016-02-07T04:13:47.590Z,11.52
2016-02-07T04:14:47.561Z,11.51
2016-02-07T04:15:47.548Z,11.51
2016-02-07T04:16:47.536Z,11.52
2016-02-07T04:17:47.490Z,11.55
2016-02-07T04:18:47.478Z,11.6
2016-02-07T04:19:47.449Z,11.52
2016-02-07T04:20:47.437Z,11.62
2016-02-07T04:21:47.409Z,11.55
2016-02-07T04:22:47.380Z,11.57
2016-02-07T04:23:47.367Z,11.6
2016-02-07T04:24:47.354Z,11.54
2016-02-07T04:25:47.325Z,11.52
2016-02-07T04:26:47.282Z,11.54
2016-02-07T04:27:47.268Z,11.54
2016-02-07T04:28:47.240Z,11.59
2016-02-07T04:29:47.211Z,11.54
2016-02-07T04:30:47.198Z,11.59
2016-02-07T04:31:47.186Z,11.51
2016-02-07T04:32:47.156Z,11.55
2016-02-07T04:33:47.128Z,11.59
2016-02-07T04:34:47.115Z,11.59
2016-02-07T04:35:47.086Z,11.57
2016-02-07T04:36:47.064Z,11.51
2016-02-07T04:37:47.050Z,11.59
2016-02-07T04:38:47.021Z,11.52
2016-02-07T04:39:46.993Z,11.55
2016-02-07T04:40:46.980Z,11.51
2016-02-07T04:41:46.958Z,11.52
2016-02-07T04:42:46.914Z,11.52
2016-02-07T04:43:46.900Z,11.6
2016-02-07T04:44:46.888Z,11.5
2016-02-07T04:45:46.844Z,11.55
2016-02-07T04:46:46.836Z,11.55
2016-02-07T04:47:46.808Z,11.5
2016-02-07T04:48:46.794Z,11.52
2016-02-07T04:49:46.750Z,11.54
2016-02-07T04:50:46.738Z,11.5
2016-02-07T04:51:46.709Z,11.55
2016-02-07T04:52:46.696Z,11.6
2016-02-07T04:53:46.667Z,11.51
2016-02-07T04:54:46.638Z,11.48
2016-02-07T04:55:46.641Z,11.5
2016-02-07T04:56:46.616Z,11.48
2016-02-07T04:57:46.572Z,11.47
2016-02-07T04:58:46.558Z,11.54
2016-02-07T04:59:46.530Z,11.52
2016-02-07T05:00:46.517Z,11.54
2016-02-07T05:01:46.488Z,11.5
2016-02-07T05:02:46.461Z,11.51
2016-02-07T05:03:46.464Z,11.51
2016-02-07T05:04:46.419Z,11.51
2016-02-07T05:05:46.391Z,11.55
2016-02-07T05:06:46.394Z,11.57
2016-02-07T05:07:46.350Z,11.51
2016-02-07T05:08:46.337Z,11.5
2016-02-07T05:09:46.310Z,11.57
2016-02-07T05:10:46.282Z,11.51
2016-02-07T05:11:46.113Z,11.51
2016-02-07T05:12:46.240Z,11.47
2016-02-07T05:13:46.211Z,11.54
2016-02-07T05:14:46.198Z,11.5
2016-02-07T05:15:46.173Z,11.54
2016-02-07T05:16:46.137Z,11.52
2016-02-07T05:17:46.124Z,11.55
2016-02-07T05:18:46.111Z,11.5
2016-02-07T05:19:46.067Z,11.51
2016-02-07T05:20:46.055Z,11.54
2016-02-07T05:21:46.041Z,11.52
2016-02-07T05:22:46.013Z,11.59
2016-02-07T05:23:45.985Z,11.59
2016-02-07T05:24:45.957Z,11.52
2016-02-07T05:25:45.944Z,11.63
2016-02-07T05:26:45.931Z,11.59
2016-02-07T05:27:45.886Z,11.6
2016-02-07T05:28:45.874Z,11.55
2016-02-07T05:29:45.844Z,11.68
2016-02-07T05:30:45.833Z,11.66
2016-02-07T05:31:45.804Z,11.72
2016-02-07T05:32:45.775Z,11.7
2016-02-07T05:33:45.763Z,11.7
2016-02-07T05:34:45.733Z,11.77
2016-02-07T05:35:45.721Z,11.87
2016-02-07T05:36:45.694Z,11.86
2016-02-07T05:37:45.696Z,11.91
2016-02-07T05:38:45.652Z,11.83
2016-02-07T05:39:45.622Z,11.94
2016-02-07T05:40:45.610Z,11.91
2016-02-07T05:41:45.586Z,11.88
2016-02-07T05:42:45.557Z,11.91
2016-02-07T05:43:45.545Z,12.02
2016-02-07T05:44:45.534Z,12.02
2016-02-07T05:45:45.505Z,12
2016-02-07T05:46:45.461Z,12.09
2016-02-07T05:47:45.448Z,12.17
2016-02-07T05:48:45.419Z,12.13
2016-02-07T05:49:45.409Z,12.25
2016-02-07T05:50:45.381Z,12.18
2016-02-07T05:51:45.352Z,12.24
2016-02-07T05:52:45.322Z,12.25
2016-02-07T05:53:45.326Z,12.29
2016-02-07T05:54:45.297Z,12.28
2016-02-07T05:55:45.269Z,12.21
2016-02-07T05:56:45.240Z,12.27
2016-02-07T05:57:45.228Z,12.37
2016-02-07T05:58:45.215Z,12.28
2016-02-07T05:59:45.172Z,12.24
2016-02-07T06:00:45.158Z,12.28
2016-02-07T06:01:45.130Z,12.21
2016-02-07T06:02:45.101Z,12.22
2016-02-07T06:03:44.934Z,12.24
2016-02-07T06:04:45.076Z,12.17
2016-02-07T06:05:45.048Z,12.25
2016-02-07T06:06:45.024Z,12.25
2016-02-07T06:07:45.011Z,12.1
2016-02-07T06:08:44.983Z,12.18
2016-02-07T06:09:44.954Z,12.17
2016-02-07T06:10:44.929Z,12.15
2016-02-07T06:11:44.916Z,12.17
2016-02-07T06:12:44.903Z,12.12
2016-02-07T06:13:44.703Z,12.17
2016-02-07T06:14:44.847Z,12.09
2016-02-07T06:15:44.835Z,12.09
2016-02-07T06:16:44.821Z,12.15
2016-02-07T06:17:44.777Z,12.12
2016-02-07T06:18:44.607Z,12.07
2016-02-07T06:19:44.735Z,12.07
2016-02-07T06:20:44.707Z,12.03
2016-02-07T06:21:44.679Z,12.06
2016-02-07T06:22:44.681Z,12.04
2016-02-07T06:23:44.653Z,12
2016-02-07T06:24:44.624Z,11.99
2016-02-07T06:25:44.595Z,12.04
2016-02-07T06:26:44.582Z,11.97
2016-02-07T06:27:44.570Z,12.02
2016-02-07T06:28:44.526Z,11.99
2016-02-07T06:29:44.512Z,11.95
2016-02-07T06:30:44.484Z,11.91
2016-02-07T06:31:44.471Z,11.95
2016-02-07T06:32:44.443Z,11.88
2016-02-07T06:33:44.415Z,11.95
2016-02-07T06:34:44.402Z,11.87
2016-02-07T06:35:44.373Z,11.91
2016-02-07T06:36:44.362Z,11.99
2016-02-07T06:37:44.333Z,11.9
2016-02-07T06:38:44.321Z,11.94
2016-02-07T06:39:44.277Z,11.99
2016-02-07T06:40:44.264Z,11.83
2016-02-07T06:41:44.235Z,11.77
2016-02-07T06:42:44.222Z,11.88
2016-02-07T06:43:44.195Z,11.8
2016-02-07T06:44:44.168Z,11.83
2016-02-07T06:45:44.154Z,11.91
2016-02-07T06:46:44.141Z,11.91
2016-02-07T06:47:44.096Z,11.91
2016-02-07T06:48:44.084Z,11.9
2016-02-07T06:49:44.057Z,11.87
2016-02-07T06:50:44.044Z,11.87
2016-02-07T06:51:44.015Z,11.95
2016-02-07T06:52:43.987Z,11.9
2016-02-07T06:53:43.959Z,11.83
2016-02-07T06:54:43.961Z,11.83
2016-02-07T06:55:43.933Z,11.81
2016-02-07T06:56:43.905Z,11.97
2016-02-07T06:57:43.876Z,11.9
2016-02-07T06:58:43.864Z,11.83
2016-02-07T06:59:43.836Z,11.84
2016-02-07T07:00:43.666Z,11.94
2016-02-07T07:01:43.778Z,11.99
2016-02-07T07:02:43.765Z,11.99
2016-02-07T07:03:43.737Z,12.02
2016-02-07T07:04:43.728Z,11.94
2016-02-07T07:05:43.701Z,11.99
2016-02-07T07:06:43.673Z,12.02
2016-02-07T07:07:43.660Z,12.03
2016-02-07T07:08:43.631Z,11.99
2016-02-07T07:09:43.603Z,12.02
2016-02-07T07:10:43.575Z,12.06
2016-02-07T07:11:43.563Z,12.09
2016-02-07T07:12:43.534Z,12.04
2016-02-07T07:13:43.505Z,12.18
2016-02-07T07:14:43.492Z,12.07
2016-02-07T07:15:43.485Z,12.17
2016-02-07T07:16:43.440Z,12.21
2016-02-07T07:17:43.427Z,12.17
2016-02-07T07:18:43.418Z,12.22
2016-02-07T07:19:43.390Z,12.24
2016-02-07T07:20:43.360Z,12.35
2016-02-07T07:21:43.332Z,12.32
2016-02-07T07:22:43.303Z,12.31
2016-02-07T07:23:43.290Z,12.39
2016-02-07T07:24:43.266Z,12.37
2016-02-07T07:25:43.253Z,12.43
2016-02-07T07:26:43.225Z,12.47
2016-02-07T07:27:43.198Z,12.55
2016-02-07T07:28:43.183Z,12.55
2016-02-07T07:29:43.171Z,12.47
2016-02-07T07:30:43.127Z,12.5
2016-02-07T07:31:43.130Z,12.54
2016-02-07T07:32:43.090Z,12.54
2016-02-07T07:33:43.061Z,12.55
2016-02-07T07:34:43.048Z,12.49
2016-02-07T07:35:43.034Z,12.53
2016-02-07T07:36:43.007Z,12.4
2016-02-07T07:37:42.978Z,12.58
2016-02-07T07:38:42.965Z,12.6
2016-02-07T07:39:42.953Z,12.43
2016-02-07T07:40:42.908Z,12.43
2016-02-07T07:41:42.896Z,12.47
2016-02-07T07:42:42.868Z,12.57
2016-02-07T07:43:42.838Z,12.62
2016-02-07T07:44:42.826Z,12.5
2016-02-07T07:45:42.802Z,12.47
2016-02-07T07:46:42.791Z,12.43
2016-02-07T07:47:42.753Z,12.47
2016-02-07T07:48:42.740Z,12.46
2016-02-07T07:49:42.727Z,12.65
2016-02-07T07:50:42.698Z,12.45
2016-02-07T07:51:42.670Z,12.47
2016-02-07T07:52:42.657Z,12.54
2016-02-07T07:53:42.645Z,12.58
2016-02-07T07:54:42.601Z,12.53
2016-02-07T07:55:42.587Z,12.64
2016-02-07T07:56:42.575Z,12.62
2016-02-07T07:57:42.546Z,12.5
2016-02-07T07:58:42.517Z,12.54
2016-02-07T07:59:42.504Z,12.55
2016-02-07T08:00:42.477Z,12.53
2016-02-07T08:01:42.449Z,12.6
2016-02-07T08:02:42.436Z,12.53
2016-02-07T08:03:42.407Z,12.57
2016-02-07T08:04:42.394Z,12.6
2016-02-07T08:05:42.365Z,12.58
2016-02-07T08:06:42.339Z,12.62
2016-02-07T08:07:42.325Z,12.62
2016-02-07T08:08:42.312Z,12.65
2016-02-07T08:09:42.283Z,12.61
2016-02-07T08:10:42.254Z,12.6
2016-02-07T08:11:42.258Z,12.67
2016-02-07T08:12:42.230Z,12.67
2016-02-07T08:13:42.201Z,12.65
2016-02-07T08:14:42.176Z,12.64
2016-02-07T08:15:42.166Z,12.62
2016-02-07T08:16:42.168Z,12.65
2016-02-07T08:17:42.108Z,12.65
2016-02-07T08:18:42.079Z,12.61
2016-02-07T08:19:42.099Z,12.61
2016-02-07T08:20:42.087Z,12.61
2016-02-07T08:21:42.027Z,12.7
2016-02-07T08:22:41.998Z,12.61
2016-02-07T08:23:41.985Z,12.6
2016-02-07T08:24:41.956Z,12.67
2016-02-07T08:25:41.944Z,12.62
2016-02-07T08:26:41.915Z,12.68
2016-02-07T08:27:41.906Z,12.61
2016-02-07T08:28:41.876Z,12.64
2016-02-07T08:29:41.848Z,12.75
2016-02-07T08:30:41.834Z,12.68
2016-02-07T08:31:41.823Z,12.75
2016-02-07T08:32:41.794Z,12.76
2016-02-07T08:33:41.766Z,12.72
2016-02-07T08:34:41.753Z,12.76
2016-02-07T08:35:41.725Z,12.8
2016-02-07T08:36:41.697Z,12.83
2016-02-07T08:37:41.700Z,12.8
2016-02-07T08:38:41.671Z,12.9
2016-02-07T08:39:41.643Z,12.86
2016-02-07T08:40:41.616Z,12.87
2016-02-07T08:41:41.605Z,12.94
2016-02-07T08:42:41.591Z,12.94
2016-02-07T08:43:41.562Z,12.97
2016-02-07T08:44:41.534Z,13.05
2016-02-07T08:45:41.525Z,13.05
2016-02-07T08:46:41.360Z,13.11
2016-02-07T08:47:41.472Z,13.04
2016-02-07T08:48:41.459Z,13.03
2016-02-07T08:49:41.446Z,13.03
2016-02-07T08:50:41.418Z,13.03
2016-02-07T08:51:41.404Z,13.01
2016-02-07T08:52:41.407Z,13.03
2016-02-07T08:53:41.364Z,13.01
2016-02-07T08:54:41.335Z,13.08
2016-02-07T08:55:41.322Z,13.08
2016-02-07T08:56:41.314Z,13.01
2016-02-07T08:57:41.284Z,12.97
2016-02-07T08:58:41.272Z,12.91
2016-02-07T08:59:41.242Z,12.83
2016-02-07T09:00:41.230Z,12.8
2016-02-07T09:01:41.200Z,12.8
2016-02-07T09:02:41.218Z,12.85
2016-02-07T09:03:41.159Z,12.72
2016-02-07T09:04:41.162Z,12.57
2016-02-07T09:05:41.117Z,12.47
2016-02-07T09:06:41.089Z,12.29
2016-02-07T09:07:41.091Z,12.12
2016-02-07T09:08:41.047Z,11.97
2016-02-07T09:09:41.033Z,11.73
2016-02-07T09:10:41.006Z,11.68
2016-02-07T09:11:40.992Z,11.63
2016-02-07T09:12:40.964Z,11.54
2016-02-07T09:13:40.950Z,11.48
2016-02-07T09:14:40.925Z,11.3
2016-02-07T09:15:40.897Z,11.4
2016-02-07T09:16:40.884Z,11.23
2016-02-07T09:17:40.857Z,11.33
2016-02-07T09:18:40.844Z,11.23
2016-02-07T09:19:40.815Z,11.17
2016-02-07T09:20:40.793Z,11.07
2016-02-07T09:21:40.779Z,11
2016-02-07T09:22:40.737Z,11.05
2016-02-07T09:23:40.723Z,10.94
2016-02-07T09:24:40.695Z,10.89
2016-02-07T09:25:40.683Z,10.93
2016-02-07T09:26:40.654Z,10.97
2016-02-07T09:27:40.629Z,10.92
2016-02-07T09:28:40.616Z,10.94
2016-02-07T09:29:40.604Z,10.97
2016-02-07T09:30:40.559Z,11.08
2016-02-07T09:31:40.546Z,11.14
2016-02-07T09:32:40.534Z,11.08
2016-02-07T09:33:40.508Z,11.1
2016-02-07T09:34:40.480Z,11.1
2016-02-07T09:35:40.456Z,11.11
2016-02-07T09:36:40.427Z,11.17
2016-02-07T09:37:40.414Z,11.18
2016-02-07T09:38:40.385Z,11.18
2016-02-07T09:39:40.372Z,11.18
2016-02-07T09:40:40.345Z,11.22
2016-02-07T09:41:40.315Z,11.25
2016-02-07T09:42:40.302Z,11.29
2016-02-07T09:43:40.290Z,11.19
2016-02-07T09:44:40.261Z,11.43
2016-02-07T09:45:40.249Z,11.3
2016-02-07T09:46:40.204Z,11.36
2016-02-07T09:47:40.192Z,11.45
2016-02-07T09:48:40.165Z,11.52
2016-02-07T09:49:40.154Z,11.44
2016-02-07T09:50:40.140Z,11.43
2016-02-07T09:51:40.096Z,11.45
2016-02-07T09:52:40.083Z,11.62
2016-02-07T09:53:40.070Z,11.57
2016-02-07T09:54:40.041Z,11.62
2016-02-07T09:55:40.013Z,11.57
2016-02-07T09:56:40.001Z,11.51
2016-02-07T09:57:39.973Z,11.54
2016-02-07T09:58:39.960Z,11.63
2016-02-07T09:59:39.932Z,11.52
2016-02-07T10:00:39.918Z,11.55
2016-02-07T10:01:39.889Z,11.5
2016-02-07T10:02:39.863Z,11.45
2016-02-07T10:03:39.849Z,11.55
2016-02-07T10:04:39.837Z,11.44
2016-02-07T10:05:39.809Z,11.5
2016-02-07T10:06:39.780Z,11.47
2016-02-07T10:07:39.766Z,11.45
2016-02-07T10:08:39.738Z,11.36
2016-02-07T10:09:39.710Z,11.36
2016-02-07T10:10:39.698Z,11.32
2016-02-07T10:11:39.716Z,11.15
2016-02-07T10:12:39.656Z,11.1
2016-02-07T10:13:39.627Z,10.97
2016-02-07T10:14:39.615Z,10.86
2016-02-07T10:15:39.586Z,10.81
2016-02-07T10:16:39.558Z,10.78
2016-02-07T10:17:39.544Z,10.79
2016-02-07T10:18:39.518Z,10.76
2016-02-07T10:19:39.497Z,10.59
2016-02-07T10:20:39.485Z,10.6
2016-02-07T10:21:39.457Z,10.6
2016-02-07T10:22:39.427Z,10.69
2016-02-07T10:23:39.418Z,10.63
2016-02-07T10:24:39.389Z,10.59
2016-02-07T10:25:39.361Z,10.57
2016-02-07T10:26:39.333Z,10.57
2016-02-07T10:27:39.319Z,10.57
2016-02-07T10:28:39.292Z,10.53
2016-02-07T10:29:39.264Z,10.56
2016-02-07T10:30:39.250Z,10.61
2016-02-07T10:31:39.239Z,10.68
2016-02-07T10:32:39.210Z,10.72
2016-02-07T10:33:39.181Z,10.75
2016-02-07T10:34:39.169Z,10.76
2016-02-07T10:35:39.156Z,10.72
2016-02-07T10:36:39.127Z,10.74
2016-02-07T10:37:39.099Z,10.81
2016-02-07T10:38:39.072Z,10.81
2016-02-07T10:39:39.047Z,10.9
2016-02-07T10:40:39.034Z,10.92
2016-02-07T10:41:39.020Z,10.99
2016-02-07T10:42:38.976Z,10.94
2016-02-07T10:43:38.964Z,11.02
2016-02-07T10:44:38.967Z,11.08
2016-02-07T10:45:38.923Z,11.08
2016-02-07T10:46:38.895Z,11.05
2016-02-07T10:47:38.881Z,11.05
2016-02-07T10:48:38.869Z,11.08
2016-02-07T10:49:38.840Z,11.05
2016-02-07T10:50:38.814Z,10.99
2016-02-07T10:51:38.801Z,10.97
2016-02-07T10:52:38.776Z,11.08
2016-02-07T10:53:38.747Z,10.97
2016-02-07T10:54:38.718Z,10.92
2016-02-07T10:55:38.706Z,11
2016-02-07T10:56:38.692Z,11.04
2016-02-07T10:57:38.665Z,11.05
2016-02-07T10:58:38.651Z,11.11
2016-02-07T10:59:38.624Z,11.19
2016-02-07T11:00:38.610Z,11.19
2016-02-07T11:01:38.582Z,11.36
2016-02-07T11:02:38.553Z,11.26
2016-02-07T11:03:38.540Z,11.33
2016-02-07T11:04:38.512Z,11.35
2016-02-07T11:05:38.360Z,11.27
2016-02-07T11:06:38.471Z,11.26
2016-02-07T11:07:38.443Z,11.32
2016-02-07T11:08:38.429Z,11.33
2016-02-07T11:09:38.407Z,11.43
2016-02-07T11:10:38.366Z,11.35
2016-02-07T11:11:38.341Z,11.48
2016-02-07T11:12:38.299Z,11.43
2016-02-07T11:13:38.258Z,11.47
2016-02-07T11:14:38.241Z,11.45
2016-02-07T11:15:38.223Z,11.43
2016-02-07T11:16:38.190Z,11.48
2016-02-07T11:17:38.157Z,11.48
2016-02-07T11:18:38.142Z,11.41
2016-02-07T11:19:38.112Z,11.48
2016-02-07T11:20:38.100Z,11.48
2016-02-07T11:21:38.071Z,11.44
2016-02-07T11:22:38.040Z,11.51
2016-02-07T11:23:38.027Z,11.51
2016-02-07T11:24:38.012Z,11.57
2016-02-07T11:25:37.983Z,11.57
2016-02-07T11:26:37.955Z,11.55
2016-02-07T11:27:37.941Z,11.65
2016-02-07T11:28:37.926Z,11.65
2016-02-07T11:29:37.882Z,11.54
2016-02-07T11:30:37.870Z,11.62
2016-02-07T11:31:37.856Z,11.62
2016-02-07T11:32:37.827Z,11.59
2016-02-07T11:33:37.813Z,11.57
2016-02-07T11:34:37.786Z,11.63
2016-02-07T11:35:37.805Z,11.65
2016-02-07T11:36:37.744Z,11.69
2016-02-07T11:37:37.732Z,11.66
2016-02-07T11:38:37.718Z,11.63
2016-02-07T11:39:37.707Z,11.72
2016-02-07T11:40:37.663Z,11.65
2016-02-07T11:41:37.650Z,11.73
2016-02-07T11:42:37.622Z,11.83
2016-02-07T11:43:37.609Z,11.8
2016-02-07T11:44:37.580Z,11.84
2016-02-07T11:45:37.568Z,11.81
2016-02-07T11:46:37.539Z,11.87
2016-02-07T11:47:37.526Z,11.9
2016-02-07T11:48:37.497Z,11.86
2016-02-07T11:49:37.484Z,11.87
2016-02-07T11:50:37.487Z,11.86
2016-02-07T11:51:37.443Z,12.03
2016-02-07T11:52:37.415Z,12.02
2016-02-07T11:53:37.403Z,12.02
2016-02-07T11:54:37.391Z,11.97
2016-02-07T11:55:37.346Z,11.9
2016-02-07T11:56:37.333Z,11.94
2016-02-07T11:57:37.320Z,11.9
2016-02-07T11:58:37.307Z,11.95
2016-02-07T11:59:37.295Z,11.88
2016-02-07T12:00:37.251Z,11.94
2016-02-07T12:01:37.238Z,11.97
2016-02-07T12:02:37.225Z,11.95
2016-02-07T12:03:37.196Z,11.97
2016-02-07T12:04:37.169Z,11.97
2016-02-07T12:05:37.155Z,11.97
2016-02-07T12:06:37.147Z,12.02
2016-02-07T12:07:37.118Z,12.07
2016-02-07T12:08:37.107Z,11.97
2016-02-07T12:09:37.093Z,11.94
2016-02-07T12:10:37.046Z,11.88
2016-02-07T12:11:37.032Z,11.97
2016-02-07T12:12:37.035Z,12.06
2016-02-07T12:13:37.007Z,12.02
2016-02-07T12:14:36.964Z,12.07
2016-02-07T12:15:36.952Z,12.09
2016-02-07T12:16:36.938Z,11.99
2016-02-07T12:17:36.910Z,12.07
2016-02-07T12:18:36.896Z,11.97
2016-02-07T12:19:36.869Z,12.03
2016-02-07T12:20:36.855Z,12.1
2016-02-07T12:21:36.842Z,12.09
2016-02-07T12:22:36.813Z,12.15
2016-02-07T12:23:36.797Z,12.13
2016-02-07T12:24:36.771Z,12.15
2016-02-07T12:25:36.757Z,12.09
2016-02-07T12:26:36.744Z,12.02
2016-02-07T12:27:36.717Z,12.07
2016-02-07T12:28:36.688Z,12.06
2016-02-07T12:29:36.675Z,12.12
2016-02-07T12:30:36.663Z,12.12
2016-02-07T12:31:36.633Z,12.22
2016-02-07T12:32:36.606Z,12.21
2016-02-07T12:33:36.593Z,12.24
2016-02-07T12:34:36.581Z,12.21
2016-02-07T12:35:36.555Z,12.2
2016-02-07T12:36:36.526Z,12.29
2016-02-07T12:37:36.513Z,12.17
2016-02-07T12:38:36.501Z,12.2
2016-02-07T12:39:36.472Z,12.1
2016-02-07T12:40:36.444Z,12.04
2016-02-07T12:41:36.431Z,12.1
2016-02-07T12:42:36.418Z,12.06
2016-02-07T12:43:36.406Z,12.1
2016-02-07T12:44:36.361Z,12.07
2016-02-07T12:45:36.364Z,12.09
2016-02-07T12:46:36.335Z,12.07
2016-02-07T12:47:36.307Z,12.07
2016-02-07T12:48:36.295Z,12.04
2016-02-07T12:49:36.282Z,12.02
2016-02-07T12:50:36.253Z,12.02
2016-02-07T12:51:36.225Z,12.07
2016-02-07T12:52:36.212Z,12.09
2016-02-07T12:53:36.186Z,11.97
2016-02-07T12:54:36.174Z,11.9
2016-02-07T12:55:36.161Z,11.91
2016-02-07T12:56:36.118Z,11.9